Thomaston, Maine
Current Conditions -  °F | °C
As of 11:35 AM on Friday 21 Nov 2014 (Local Time) from KRKD Reporting Station
Few Clouds Few Clouds  
Wind Chill: 18°   Ceiling: Unl
Heat Index: 30°   Visibility: 10mi
Dew Point:   Wind: 18mph
Humidity: 40%   Direction: 280°W
Pressure: 29.96"   Gusts: 24mph
Location:  44.08°N, 69.18°W
Report Text: KRKD 211635Z AUTO 28016G21KT 10SM FEW048 M01/M13 A2996 RMK AO1
Loading
Personal Weather Stations






























Interactive Weather Map New forecast layout! Learn more

10-Day Weather Forecast

Advertisements
Track Severe Weather on mobile